createdAt,value
2022-07-29T00:02:11.503Z,1.30
2022-07-29T00:04:39.867Z,1.30
2022-07-29T00:07:08.172Z,1.15
2022-07-29T00:09:50.892Z,1.48
2022-07-29T00:12:26.407Z,1.40
2022-07-29T00:14:58.428Z,1.48
2022-07-29T00:17:27.117Z,1.50
2022-07-29T00:19:55.464Z,1.40
2022-07-29T00:22:23.866Z,1.60
2022-07-29T00:24:52.503Z,1.60
2022-07-29T00:27:20.832Z,1.70
2022-07-29T00:29:49.178Z,1.30
2022-07-29T00:32:17.478Z,1.50
2022-07-29T00:35:04.347Z,1.20
2022-07-29T00:37:32.566Z,1.50
2022-07-29T00:40:00.921Z,1.67
2022-07-29T00:42:29.549Z,1.33
2022-07-29T00:44:57.872Z,1.52
2022-07-29T00:47:26.205Z,1.42
2022-07-29T00:49:54.724Z,1.45
2022-07-29T00:52:23.068Z,1.80
2022-07-29T00:54:51.543Z,1.60
2022-07-29T00:57:20.037Z,1.50
2022-07-29T00:59:48.780Z,1.75
2022-07-29T01:02:17.142Z,1.60
2022-07-29T01:04:45.577Z,1.80
2022-07-29T01:07:14.263Z,1.40
2022-07-29T01:09:45.714Z,1.50
2022-07-29T01:12:21.147Z,1.50
2022-07-29T01:14:51.543Z,1.63
2022-07-29T01:17:53.433Z,1.60
2022-07-29T01:20:47.498Z,1.65
2022-07-29T01:23:38.427Z,1.52
2022-07-29T01:26:25.558Z,1.70
2022-07-29T01:29:08.266Z,1.65
2022-07-29T01:32:00.630Z,2.00
2022-07-29T01:34:38.033Z,1.65
2022-07-29T01:37:15.711Z,1.60
2022-07-29T01:39:45.622Z,1.60
2022-07-29T01:42:44.982Z,1.60
2022-07-29T01:45:32.668Z,1.70
2022-07-29T01:48:22.386Z,1.50
2022-07-29T01:51:02.582Z,1.67
2022-07-29T01:53:40.919Z,1.30
2022-07-29T01:56:12.502Z,1.67
2022-07-29T01:58:43.832Z,1.50
2022-07-29T02:01:16.766Z,1.48
2022-07-29T02:03:49.973Z,1.70
2022-07-29T02:06:23.409Z,1.80
2022-07-29T02:08:54.113Z,1.50
2022-07-29T02:11:22.583Z,1.83
2022-07-29T02:13:54.576Z,1.80
2022-07-29T02:16:25.199Z,1.70
2022-07-29T02:18:56.502Z,1.50
2022-07-29T02:21:28.183Z,1.58
2022-07-29T02:23:58.262Z,1.42
2022-07-29T02:26:29.257Z,1.60
2022-07-29T02:28:59.710Z,1.60
2022-07-29T02:31:35.384Z,1.05
2022-07-29T02:34:10.736Z,1.42
2022-07-29T02:36:39.982Z,1.50
2022-07-29T02:39:10.630Z,1.60
2022-07-29T02:41:52.561Z,1.52
2022-07-29T02:44:23.823Z,1.38
2022-07-29T02:47:01.290Z,1.38
2022-07-29T02:50:04.590Z,1.42
2022-07-29T02:53:09.471Z,1.60
2022-07-29T02:55:48.612Z,1.92
2022-07-29T02:58:22.777Z,1.90
2022-07-29T03:00:53.783Z,1.80
2022-07-29T03:03:24.183Z,1.50
2022-07-29T03:05:59.061Z,1.40
2022-07-29T03:08:28.982Z,1.80
2022-07-29T03:10:58.423Z,1.40
2022-07-29T03:13:28.187Z,1.33
2022-07-29T03:15:57.590Z,2.00
2022-07-29T03:18:27.631Z,1.60
2022-07-29T03:20:56.105Z,1.10
2022-07-29T03:23:26.057Z,1.38
2022-07-29T03:25:55.248Z,1.00
2022-07-29T03:28:26.894Z,1.30
2022-07-29T03:30:56.072Z,1.27
2022-07-29T03:33:24.983Z,1.15
2022-07-29T03:35:53.303Z,1.30
2022-07-29T03:38:24.981Z,1.30
2022-07-29T03:41:00.827Z,1.35
2022-07-29T03:43:32.983Z,1.13
2022-07-29T03:46:03.171Z,1.40
2022-07-29T03:48:35.321Z,1.30
2022-07-29T03:51:04.186Z,1.30
2022-07-29T03:53:34.351Z,1.10
2022-07-29T03:56:05.298Z,1.23
2022-07-29T03:58:35.062Z,1.17
2022-07-29T04:01:03.544Z,1.00
2022-07-29T04:03:32.240Z,0.90
2022-07-29T04:06:07.702Z,1.05
2022-07-29T04:08:36.982Z,1.10
2022-07-29T04:11:06.352Z,1.20
2022-07-29T04:13:35.224Z,0.95
2022-07-29T04:16:03.659Z,2.92
2022-07-29T04:18:31.937Z,2.30
2022-07-29T04:21:02.765Z,1.15
2022-07-29T04:23:35.705Z,1.40
2022-07-29T04:26:16.264Z,1.13
2022-07-29T04:28:44.822Z,1.00
2022-07-29T04:31:14.631Z,1.13
2022-07-29T04:33:43.002Z,0.90
2022-07-29T04:36:28.413Z,0.85
2022-07-29T04:38:58.201Z,0.80
2022-07-29T04:41:32.839Z,0.90
2022-07-29T04:44:07.516Z,0.90
2022-07-29T04:46:38.040Z,1.00
2022-07-29T04:49:06.931Z,0.93
2022-07-29T04:51:35.488Z,1.20
2022-07-29T04:54:03.714Z,1.13
2022-07-29T04:56:31.955Z,1.10
2022-07-29T04:59:00.432Z,1.02
2022-07-29T05:01:29.193Z,1.25
2022-07-29T05:04:00.515Z,1.25
2022-07-29T05:06:29.301Z,1.20
2022-07-29T05:08:57.641Z,1.08
2022-07-29T05:11:30.254Z,1.23
2022-07-29T05:13:58.981Z,1.30
2022-07-29T05:16:27.487Z,1.20
2022-07-29T05:18:56.181Z,1.38
2022-07-29T05:21:24.661Z,1.05
2022-07-29T05:23:53.142Z,1.10
2022-07-29T05:26:21.436Z,1.27
2022-07-29T05:28:49.786Z,1.08
2022-07-29T05:31:18.602Z,1.15
2022-07-29T05:33:47.541Z,0.90
2022-07-29T05:36:16.355Z,1.20
2022-07-29T05:38:44.993Z,1.00
2022-07-29T05:41:13.785Z,1.08
2022-07-29T05:43:42.421Z,1.30
2022-07-29T05:46:10.878Z,1.50
2022-07-29T05:48:39.578Z,0.93
2022-07-29T05:51:08.026Z,0.93
2022-07-29T05:53:36.513Z,0.80
2022-07-29T05:56:09.256Z,1.02
2022-07-29T05:58:38.057Z,1.40
2022-07-29T06:01:06.778Z,1.20
2022-07-29T06:03:35.136Z,1.13
2022-07-29T06:06:03.364Z,0.95
2022-07-29T06:08:31.778Z,0.95
2022-07-29T06:11:00.185Z,0.90
2022-07-29T06:13:28.456Z,1.00
2022-07-29T06:15:56.950Z,1.00
2022-07-29T06:18:28.175Z,1.10
2022-07-29T06:20:56.735Z,0.75
2022-07-29T06:23:25.061Z,0.95
2022-07-29T06:25:53.596Z,0.98
2022-07-29T06:28:21.876Z,1.00
2022-07-29T06:30:50.284Z,0.82
2022-07-29T06:33:22.101Z,1.13
2022-07-29T06:35:53.405Z,0.90
2022-07-29T06:38:30.164Z,0.93
2022-07-29T06:41:04.609Z,0.90
2022-07-29T06:43:52.208Z,0.90
2022-07-29T06:46:24.263Z,0.88
2022-07-29T06:48:54.206Z,0.77
2022-07-29T06:51:24.099Z,0.80
2022-07-29T06:53:59.476Z,0.80
2022-07-29T06:56:40.222Z,0.68
2022-07-29T06:59:10.100Z,0.70
2022-07-29T07:01:40.435Z,0.50
2022-07-29T07:04:10.740Z,0.68
2022-07-29T07:06:40.022Z,0.70
2022-07-29T07:09:08.584Z,0.77
2022-07-29T07:11:37.434Z,0.50
2022-07-29T07:14:05.775Z,0.47
2022-07-29T07:16:34.552Z,0.50
2022-07-29T07:19:03.781Z,0.47
2022-07-29T07:21:32.260Z,0.80
2022-07-29T07:24:01.795Z,0.80
2022-07-29T07:26:30.903Z,0.60
2022-07-29T07:28:59.940Z,0.70
2022-07-29T07:31:28.466Z,0.60
2022-07-29T07:33:56.834Z,0.60
2022-07-29T07:36:25.495Z,0.60
2022-07-29T07:38:53.970Z,0.52
2022-07-29T07:41:22.658Z,0.50
2022-07-29T07:43:51.140Z,0.70
2022-07-29T07:46:19.690Z,0.77
2022-07-29T07:48:47.970Z,0.90
2022-07-29T07:51:16.426Z,0.73
2022-07-29T07:53:46.661Z,0.63
2022-07-29T07:56:14.979Z,0.73
2022-07-29T07:58:43.432Z,0.68
2022-07-29T08:01:12.795Z,0.65
2022-07-29T08:03:41.387Z,0.50
2022-07-29T08:06:09.650Z,0.60
2022-07-29T08:08:37.909Z,0.70
2022-07-29T08:11:09.459Z,0.60
2022-07-29T08:13:39.787Z,0.60
2022-07-29T08:16:17.117Z,0.50
2022-07-29T08:18:47.460Z,0.50
2022-07-29T08:21:19.306Z,0.60
2022-07-29T08:23:57.983Z,0.85
2022-07-29T08:26:28.441Z,0.70
2022-07-29T08:28:57.064Z,0.60
2022-07-29T08:31:25.642Z,0.70
2022-07-29T08:33:54.181Z,0.85
2022-07-29T08:36:22.990Z,0.68
2022-07-29T08:38:51.466Z,0.70
2022-07-29T08:41:22.020Z,0.88
2022-07-29T08:43:51.545Z,0.93
2022-07-29T08:46:21.896Z,0.70
2022-07-29T08:48:50.962Z,0.90
2022-07-29T08:51:23.792Z,0.90
2022-07-29T08:53:52.756Z,0.82
2022-07-29T08:56:22.041Z,0.80
2022-07-29T08:58:52.708Z,0.90
2022-07-29T09:01:36.531Z,0.93
2022-07-29T09:04:13.242Z,0.85
2022-07-29T09:06:46.450Z,1.00
2022-07-29T09:09:15.807Z,1.10
2022-07-29T09:11:45.451Z,1.05
2022-07-29T09:14:15.521Z,1.10
2022-07-29T09:16:57.027Z,0.82
2022-07-29T09:19:33.721Z,1.10
2022-07-29T09:22:04.052Z,0.98
2022-07-29T09:24:47.160Z,1.30
2022-07-29T09:27:24.517Z,0.98
2022-07-29T09:30:16.372Z,1.02
2022-07-29T09:33:03.486Z,0.95
2022-07-29T09:35:32.930Z,1.02
2022-07-29T09:38:13.255Z,1.00
2022-07-29T09:40:42.520Z,0.95
2022-07-29T09:43:15.513Z,0.90
2022-07-29T09:45:43.891Z,0.90
2022-07-29T09:48:18.845Z,0.82
2022-07-29T09:50:50.522Z,0.90
2022-07-29T09:53:38.459Z,0.77
2022-07-29T09:56:07.971Z,0.73
2022-07-29T09:58:36.615Z,0.77
2022-07-29T10:01:05.794Z,0.70
2022-07-29T10:03:34.297Z,0.77
2022-07-29T10:06:10.195Z,0.80
2022-07-29T10:08:39.458Z,0.70
2022-07-29T10:11:18.831Z,0.65
2022-07-29T10:13:49.369Z,0.77
2022-07-29T10:16:18.898Z,0.90
2022-07-29T10:18:48.913Z,0.80
2022-07-29T10:21:34.838Z,0.57
2022-07-29T10:24:06.362Z,0.70
2022-07-29T10:26:35.170Z,0.68
2022-07-29T10:29:03.450Z,0.90
2022-07-29T10:32:05.886Z,1.10
2022-07-29T10:34:52.121Z,1.13
2022-07-29T10:37:29.721Z,0.90
2022-07-29T10:40:52.221Z,1.05
2022-07-29T10:43:37.948Z,0.73
2022-07-29T10:46:07.568Z,0.70
2022-07-29T10:48:37.031Z,0.70
2022-07-29T10:51:10.370Z,0.77
2022-07-29T10:53:51.477Z,0.82
2022-07-29T10:56:32.002Z,0.77
2022-07-29T10:59:22.758Z,0.98
2022-07-29T11:01:55.493Z,1.08
2022-07-29T11:04:47.051Z,1.10
2022-07-29T11:07:45.538Z,0.82
2022-07-29T11:10:17.874Z,1.00
2022-07-29T11:12:50.200Z,1.00
2022-07-29T11:15:21.091Z,0.98
2022-07-29T11:18:02.633Z,0.80
2022-07-29T11:20:49.799Z,0.88
2022-07-29T11:23:33.753Z,0.95
2022-07-29T11:28:54.034Z,1.00
2022-07-29T11:31:45.628Z,1.10
2022-07-29T11:34:28.067Z,1.00
2022-07-29T11:37:15.872Z,0.98
2022-07-29T11:40:01.980Z,0.80
2022-07-29T11:42:34.303Z,0.95
2022-07-29T11:47:55.011Z,1.20
2022-07-29T11:50:49.861Z,1.10
2022-07-29T11:53:18.525Z,1.30
2022-07-29T11:55:51.083Z,1.67
2022-07-29T11:58:30.826Z,1.30
2022-07-29T12:01:04.158Z,3.05
2022-07-29T12:06:18.545Z,1.33
2022-07-29T12:08:49.620Z,1.17
2022-07-29T12:11:23.394Z,1.35
2022-07-29T12:13:53.420Z,1.20
2022-07-29T12:16:25.809Z,1.33
2022-07-29T12:19:01.935Z,1.02
2022-07-29T12:21:32.264Z,1.25
2022-07-29T12:24:05.830Z,1.30
2022-07-29T12:26:40.406Z,1.00
2022-07-29T12:29:14.751Z,0.98
2022-07-29T12:31:49.056Z,1.35
2022-07-29T12:34:18.984Z,1.10
2022-07-29T12:36:47.622Z,1.30
2022-07-29T12:39:17.314Z,1.30
2022-07-29T12:41:46.181Z,1.20
2022-07-29T12:44:14.667Z,1.30
2022-07-29T12:46:48.537Z,1.05
2022-07-29T12:49:26.923Z,1.17
2022-07-29T12:51:55.909Z,1.05
2022-07-29T12:54:24.581Z,1.08
2022-07-29T12:57:02.181Z,1.40
2022-07-29T12:59:30.771Z,1.10
2022-07-29T13:02:01.817Z,1.45
2022-07-29T13:04:37.554Z,1.27
2022-07-29T13:07:10.484Z,1.10
2022-07-29T13:09:44.363Z,1.05
2022-07-29T13:12:15.546Z,1.20
2022-07-29T13:14:52.386Z,1.25
2022-07-29T13:17:25.142Z,1.15
2022-07-29T13:19:55.461Z,1.05
2022-07-29T13:22:25.913Z,1.10
2022-07-29T13:24:55.746Z,1.00
2022-07-29T13:27:35.626Z,0.90
2022-07-29T13:30:07.461Z,0.70
2022-07-29T13:32:38.833Z,0.70
2022-07-29T13:35:09.987Z,0.90
2022-07-29T13:37:41.449Z,0.90
2022-07-29T13:40:11.643Z,0.63
2022-07-29T13:42:40.987Z,0.70
2022-07-29T13:45:12.747Z,0.60
2022-07-29T13:47:43.594Z,0.65
2022-07-29T13:50:15.856Z,0.70
2022-07-29T13:52:44.851Z,0.70
2022-07-29T13:55:13.226Z,0.60
2022-07-29T13:57:41.542Z,0.80
2022-07-29T14:00:11.471Z,0.60
2022-07-29T14:02:40.380Z,0.63
2022-07-29T14:05:10.282Z,0.75
2022-07-29T14:07:40.901Z,0.70
2022-07-29T14:10:10.349Z,0.65
2022-07-29T14:12:38.745Z,0.60
2022-07-29T14:15:08.021Z,0.63
2022-07-29T14:17:37.227Z,0.80
2022-07-29T14:20:06.821Z,0.80
2022-07-29T14:22:40.202Z,1.00
2022-07-29T14:25:14.516Z,0.80
2022-07-29T14:27:45.461Z,0.70
2022-07-29T14:30:14.598Z,0.60
2022-07-29T14:32:43.623Z,0.60
2022-07-29T14:35:12.416Z,0.80
2022-07-29T14:37:41.284Z,0.60
2022-07-29T14:40:11.389Z,1.02
2022-07-29T14:42:41.035Z,0.70
2022-07-29T14:45:11.503Z,0.70
2022-07-29T14:47:41.386Z,0.90
2022-07-29T14:50:10.831Z,0.95
2022-07-29T14:52:39.808Z,0.68
2022-07-29T14:55:16.579Z,0.70
2022-07-29T14:57:48.201Z,0.98
2022-07-29T15:00:16.972Z,0.80
2022-07-29T15:03:01.294Z,1.08
2022-07-29T15:07:58.252Z,0.80
2022-07-29T15:10:28.997Z,0.70
2022-07-29T15:12:58.438Z,0.80
2022-07-29T15:15:27.625Z,1.00
2022-07-29T15:17:56.115Z,1.02
2022-07-29T15:20:27.122Z,0.98
2022-07-29T15:22:57.364Z,0.65
2022-07-29T15:25:28.197Z,0.70
2022-07-29T15:28:01.105Z,0.73
2022-07-29T15:30:33.337Z,0.80
2022-07-29T15:33:06.577Z,0.73
2022-07-29T15:35:39.929Z,0.93
2022-07-29T15:38:08.578Z,1.10
2022-07-29T15:40:38.616Z,0.70
2022-07-29T15:43:10.313Z,0.70
2022-07-29T15:45:40.507Z,0.90
2022-07-29T15:48:14.959Z,0.73
2022-07-29T15:50:46.892Z,0.60
2022-07-29T15:53:15.525Z,0.93
2022-07-29T15:55:44.526Z,0.90
2022-07-29T15:58:13.012Z,0.75
2022-07-29T16:00:41.495Z,0.68
2022-07-29T16:03:10.396Z,0.70
2022-07-29T16:05:38.781Z,0.98
2022-07-29T16:08:07.420Z,0.73
2022-07-29T16:10:36.216Z,0.80
2022-07-29T16:13:04.862Z,0.80
2022-07-29T16:15:33.457Z,1.00
2022-07-29T16:18:02.062Z,1.17
2022-07-29T16:20:31.741Z,0.88
2022-07-29T16:23:00.081Z,1.65
2022-07-29T16:25:57.390Z,0.85
2022-07-29T16:28:16.796Z,0.82
2022-07-29T16:30:45.120Z,1.02
2022-07-29T16:33:13.442Z,1.10
2022-07-29T16:35:43.360Z,1.05
2022-07-29T16:38:11.836Z,0.95
2022-07-29T16:40:40.156Z,1.20
2022-07-29T16:43:08.843Z,1.10
2022-07-29T16:45:46.009Z,1.15
2022-07-29T16:48:18.120Z,0.90
2022-07-29T16:50:47.730Z,1.17
2022-07-29T16:53:16.196Z,1.13
2022-07-29T16:55:45.322Z,1.30
2022-07-29T16:58:13.797Z,1.20
2022-07-29T17:00:42.316Z,1.02
2022-07-29T17:03:11.086Z,1.20
2022-07-29T17:05:52.352Z,1.10
2022-07-29T17:08:23.718Z,1.50
2022-07-29T17:10:52.348Z,1.30
2022-07-29T17:13:20.742Z,1.25
2022-07-29T17:15:49.072Z,1.40
2022-07-29T17:18:17.423Z,1.42
2022-07-29T17:20:46.550Z,1.20
2022-07-29T17:23:14.788Z,1.50
2022-07-29T17:25:43.501Z,1.40
2022-07-29T17:28:11.762Z,1.20
2022-07-29T17:30:40.037Z,1.23
2022-07-29T17:33:08.443Z,1.30
2022-07-29T17:35:56.478Z,1.60
2022-07-29T17:38:24.993Z,1.58
2022-07-29T17:40:53.218Z,1.25
2022-07-29T17:43:21.647Z,1.38
2022-07-29T17:45:50.889Z,1.52
2022-07-29T17:48:20.362Z,1.30
2022-07-29T17:50:49.802Z,1.45
2022-07-29T17:53:18.364Z,1.40
2022-07-29T17:55:49.498Z,1.40
2022-07-29T17:58:18.124Z,1.75
2022-07-29T18:00:46.632Z,1.23
2022-07-29T18:03:15.676Z,1.50
2022-07-29T18:05:44.540Z,1.60
2022-07-29T18:08:12.933Z,1.25
2022-07-29T18:10:42.288Z,1.30
2022-07-29T18:13:11.055Z,1.45
2022-07-29T18:15:40.157Z,1.58
2022-07-29T18:18:09.483Z,1.73
2022-07-29T18:20:37.957Z,1.70
2022-07-29T18:23:06.436Z,1.40
2022-07-29T18:25:34.758Z,1.45
2022-07-29T18:28:03.237Z,1.10
2022-07-29T18:30:32.192Z,1.20
2022-07-29T18:33:20.245Z,1.40
2022-07-29T18:35:50.942Z,1.50
2022-07-29T18:38:20.116Z,1.38
2022-07-29T18:40:48.677Z,1.50
2022-07-29T18:43:16.997Z,1.40
2022-07-29T18:45:45.477Z,1.50
2022-07-29T18:48:13.959Z,1.50
2022-07-29T18:50:43.401Z,1.60
2022-07-29T18:53:11.887Z,1.30
2022-07-29T18:55:40.356Z,1.40
2022-07-29T18:58:09.000Z,1.58
2022-07-29T19:00:37.482Z,1.65
2022-07-29T19:03:05.916Z,1.65
2022-07-29T19:05:34.616Z,1.50
2022-07-29T19:08:03.096Z,1.70
2022-07-29T19:10:31.873Z,1.63
2022-07-29T19:13:00.526Z,1.60
2022-07-29T19:15:29.096Z,1.45
2022-07-29T19:18:00.971Z,1.75
2022-07-29T19:20:30.322Z,1.40
2022-07-29T19:22:59.647Z,1.50
2022-07-29T19:25:28.071Z,1.50
2022-07-29T19:27:58.362Z,2.00
2022-07-29T19:30:26.752Z,1.40
2022-07-29T19:32:55.111Z,1.80
2022-07-29T19:35:29.091Z,1.55
2022-07-29T19:37:59.725Z,1.60
2022-07-29T19:40:30.125Z,1.60
2022-07-29T19:42:59.011Z,1.40
2022-07-29T19:45:27.995Z,1.40
2022-07-29T19:48:01.308Z,1.40
2022-07-29T19:50:30.777Z,1.10
2022-07-29T19:53:00.529Z,1.10
2022-07-29T19:55:29.241Z,1.40
2022-07-29T19:57:57.903Z,1.50
2022-07-29T20:00:27.191Z,1.23
2022-07-29T20:02:55.797Z,1.45
2022-07-29T20:05:28.337Z,1.30
2022-07-29T20:07:57.164Z,1.20
2022-07-29T20:10:26.134Z,1.20
2022-07-29T20:12:55.337Z,1.45
2022-07-29T20:15:24.111Z,1.30
2022-07-29T20:17:56.907Z,1.23
2022-07-29T20:20:26.119Z,1.17
2022-07-29T20:22:55.359Z,1.30
2022-07-29T20:25:24.671Z,1.10
2022-07-29T20:27:53.728Z,1.30
2022-07-29T20:30:25.727Z,1.23
2022-07-29T20:32:54.133Z,1.10
2022-07-29T20:35:23.348Z,1.27
2022-07-29T20:37:56.392Z,1.13
2022-07-29T20:40:26.785Z,1.30
2022-07-29T20:42:56.281Z,1.10
2022-07-29T20:45:25.357Z,1.17
2022-07-29T20:47:55.082Z,1.20
2022-07-29T20:50:24.612Z,1.30
2022-07-29T20:52:53.953Z,1.27
2022-07-29T20:55:22.726Z,1.38
2022-07-29T20:57:51.263Z,1.50
2022-07-29T21:00:19.881Z,1.20
2022-07-29T21:02:48.262Z,1.40
2022-07-29T21:05:17.077Z,1.50
2022-07-29T21:07:45.313Z,1.40
2022-07-29T21:10:15.243Z,1.40
2022-07-29T21:12:43.677Z,1.40
2022-07-29T21:15:14.454Z,1.30
2022-07-29T21:17:49.646Z,1.50
2022-07-29T21:20:19.726Z,1.50
2022-07-29T21:22:48.057Z,1.20
2022-07-29T21:25:16.363Z,1.40
2022-07-29T21:28:02.841Z,1.23
2022-07-29T21:30:31.241Z,1.40
2022-07-29T21:32:59.875Z,1.42
2022-07-29T21:35:35.687Z,1.42
2022-07-29T21:38:20.147Z,1.60
2022-07-29T21:40:50.038Z,1.58
2022-07-29T21:43:19.419Z,1.60
2022-07-29T21:45:53.906Z,1.52
2022-07-29T21:48:23.557Z,1.50
2022-07-29T21:50:52.967Z,1.58
2022-07-29T21:53:22.998Z,1.50
2022-07-29T21:55:55.324Z,1.90
2022-07-29T21:58:25.641Z,1.42
2022-07-29T22:00:54.752Z,1.55
2022-07-29T22:03:23.018Z,1.70
2022-07-29T22:05:51.397Z,1.80
2022-07-29T22:08:21.952Z,1.63
2022-07-29T22:10:50.443Z,1.95
2022-07-29T22:13:19.399Z,1.77
2022-07-29T22:15:48.048Z,1.63
2022-07-29T22:18:20.748Z,1.50
2022-07-29T22:20:51.253Z,1.70
2022-07-29T22:23:19.577Z,1.88
2022-07-29T22:25:47.892Z,1.70
2022-07-29T22:28:16.117Z,1.80
2022-07-29T22:30:44.405Z,1.85
2022-07-29T22:33:17.554Z,1.65
2022-07-29T22:35:48.953Z,1.90
2022-07-29T22:38:18.921Z,1.75
2022-07-29T22:40:48.847Z,1.75
2022-07-29T22:43:19.173Z,1.65
2022-07-29T22:45:47.461Z,1.67
2022-07-29T22:48:16.018Z,1.40
2022-07-29T22:50:44.533Z,1.63
2022-07-29T22:53:12.833Z,1.83
2022-07-29T22:55:41.194Z,2.47
2022-07-29T22:58:09.731Z,2.03
2022-07-29T23:00:38.257Z,1.90
2022-07-29T23:03:06.767Z,2.03
2022-07-29T23:05:35.561Z,1.80
2022-07-29T23:08:03.964Z,2.28
2022-07-29T23:10:32.632Z,2.00
2022-07-29T23:13:00.997Z,1.88
2022-07-29T23:15:29.316Z,2.00
2022-07-29T23:17:57.648Z,2.00
2022-07-29T23:20:26.117Z,2.05
2022-07-29T23:22:54.615Z,2.00
2022-07-29T23:25:22.902Z,2.47
2022-07-29T23:27:51.243Z,1.80
2022-07-29T23:30:19.466Z,1.80
2022-07-29T23:32:47.845Z,2.25
2022-07-29T23:35:16.313Z,2.20
2022-07-29T23:37:44.843Z,1.90
2022-07-29T23:40:14.659Z,2.00
2022-07-29T23:42:44.671Z,2.10
2022-07-29T23:45:14.926Z,2.53
2022-07-29T23:47:43.917Z,2.28
2022-07-29T23:50:13.809Z,1.90
2022-07-29T23:52:42.925Z,1.98
2022-07-29T23:55:37.431Z,1.73
2022-07-29T23:58:02.543Z,2.00
